Time;durP1;ratioP1;P1;durP2;ratioP2;P2;SDS_P1;SDS_P2;PMS_P1;PMS_P2;Temp;Humidity;BMP_temperature;BMP_pressure;BME280_temperature;BME280_humidity;BME280_pressure;Samples;Min_cycle;Max_cycle;Signal;HPM_P1;HPM_P2
2021/07/20 00:00:06;;;;;;;4.80;3.85;;;;;;;18.23;59.05;101378.22;694323;28;9465;-63
2021/07/20 00:00:29;;;;;;;6.70;3.67;;;;;;;18.21;58.98;101380.31;690405;28;115143;-64
2021/07/20 00:00:50;;;;;;;6.20;4.00;;;;;;;18.21;59.27;101384.97;693197;28;31845;-64
2021/07/20 00:01:12;;;;;;;6.75;4.22;;;;;;;18.19;59.14;101377.78;692981;28;23770;-64
2021/07/20 00:01:34;;;;;;;4.70;3.95;;;;;;;18.18;59.18;101378.00;692245;28;44364;-63
2021/07/20 00:01:56;;;;;;;5.80;4.05;;;;;;;18.17;59.22;101374.44;692814;28;47445;-63
2021/07/20 00:02:18;;;;;;;5.38;4.10;;;;;;;18.17;59.41;101376.34;692709;28;46416;-63
2021/07/20 00:02:40;;;;;;;6.95;3.72;;;;;;;18.17;59.29;101377.19;693346;28;21507;-63
2021/07/20 00:03:02;;;;;;;5.88;4.10;;;;;;;18.18;59.47;101383.47;693147;28;69347;-61
2021/07/20 00:03:26;;;;;;;4.50;4.10;;;;;;;18.16;59.56;101378.22;696598;28;990;-64
2021/07/20 00:03:49;;;;;;;5.63;3.90;;;;;;;18.17;59.26;101376.34;695890;28;36214;-64
2021/07/20 00:04:10;;;;;;;4.50;3.83;;;;;;;18.16;59.42;101382.84;691477;28;67497;-63
2021/07/20 00:04:31;;;;;;;4.63;3.95;;;;;;;18.15;59.52;101375.69;693740;28;20735;-64
2021/07/20 00:04:52;;;;;;;8.65;4.40;;;;;;;18.14;59.44;101379.50;693920;28;17138;-64
2021/07/20 00:05:20;;;;;;;7.32;4.40;;;;;;;18.13;59.59;101388.75;695655;28;1910;-63
2021/07/20 00:05:42;;;;;;;4.18;3.78;;;;;;;18.11;59.59;101383.50;691162;28;122706;-63
2021/07/20 00:06:03;;;;;;;5.50;3.92;;;;;;;18.10;59.74;101380.97;694814;28;9506;-64
2021/07/20 00:06:24;;;;;;;6.60;4.18;;;;;;;18.09;59.72;101382.88;692572;28;23401;-63
2021/07/20 00:06:46;;;;;;;5.00;4.30;;;;;;;18.09;59.71;101382.03;693202;28;23516;-63
2021/07/20 00:07:07;;;;;;;5.25;4.28;;;;;;;18.08;59.92;101381.19;693053;28;46353;-63
2021/07/20 00:07:28;;;;;;;5.70;4.20;;;;;;;18.08;59.93;101377.63;693416;28;22440;-63
2021/07/20 00:07:50;;;;;;;5.63;4.03;;;;;;;18.08;59.95;101383.91;693830;28;23531;-61
2021/07/20 00:08:13;;;;;;;5.72;4.00;;;;;;;18.07;59.93;101379.50;693674;28;27996;-63
2021/07/20 00:08:34;;;;;;;5.40;3.90;;;;;;;18.08;59.89;101383.09;692209;28;69306;-63
2021/07/20 00:08:55;;;;;;;4.32;3.90;;;;;;;18.09;59.99;101376.56;693939;28;20918;-63
2021/07/20 00:09:16;;;;;;;5.88;4.00;;;;;;;18.07;59.96;101382.25;693748;28;21267;-63
2021/07/20 00:09:37;;;;;;;7.35;4.30;;;;;;;18.06;59.92;101380.56;693919;28;22482;-63
2021/07/20 00:10:00;;;;;;;5.97;4.40;;;;;;;18.07;59.92;101387.72;693898;28;23492;-63
2021/07/20 00:10:23;;;;;;;4.55;4.13;;;;;;;18.08;59.78;101380.34;692446;28;69782;-63
2021/07/20 00:10:47;;;;;;;4.97;4.10;;;;;;;18.07;59.66;101390.44;691061;28;69145;-63
2021/07/20 00:11:08;;;;;;;7.85;4.28;;;;;;;18.07;59.80;101384.13;691313;28;86549;-63
2021/07/20 00:11:30;;;;;;;7.82;4.40;;;;;;;18.07;59.66;101389.59;693062;28;21405;-63
2021/07/20 00:11:51;;;;;;;4.20;3.70;;;;;;;18.06;59.62;101387.94;693585;28;31069;-63
2021/07/20 00:12:12;;;;;;;4.93;3.92;;;;;;;18.04;59.62;101390.88;692850;28;14239;-63
2021/07/20 00:12:35;;;;;;;5.70;3.92;;;;;;;18.01;59.88;101392.13;693003;28;21618;-63
2021/07/20 00:12:57;;;;;;;5.90;4.13;;;;;;;18.01;59.87;101386.66;692087;28;65059;-63
2021/07/20 00:13:19;;;;;;;5.35;4.00;;;;;;;18.00;59.74;101392.34;692684;28;43987;-63
2021/07/20 00:13:40;;;;;;;5.68;4.32;;;;;;;17.98;59.97;101395.28;692557;28;46109;-63
2021/07/20 00:14:02;;;;;;;5.70;4.15;;;;;;;17.96;59.86;101394.66;693871;28;22080;-63
2021/07/20 00:14:24;;;;;;;4.30;3.70;;;;;;;17.96;59.98;101396.53;693896;28;11857;-63
2021/07/20 00:14:45;;;;;;;5.72;4.30;;;;;;;17.93;60.16;101394.22;693101;28;47522;-63
2021/07/20 00:15:08;;;;;;;5.47;4.20;;;;;;;17.92;59.97;101396.09;694174;28;11927;-63
2021/07/20 00:15:29;;;;;;;4.75;3.97;;;;;;;17.90;60.17;101386.44;692227;28;70039;-63
2021/07/20 00:15:54;;;;;;;4.90;4.13;;;;;;;17.91;60.08;101391.69;693453;28;21539;-63
2021/07/20 00:16:16;;;;;;;5.10;4.50;;;;;;;17.89;60.12;101392.97;689808;28;136365;-63
2021/07/20 00:16:37;;;;;;;4.90;4.35;;;;;;;17.87;60.19;101398.59;693904;28;22414;-64
2021/07/20 00:16:58;;;;;;;6.07;4.00;;;;;;;17.84;60.36;101390.81;692481;28;45150;-63
2021/07/20 00:17:22;;;;;;;4.32;3.63;;;;;;;17.84;60.13;101391.66;693354;28;23420;-63
2021/07/20 00:17:45;;;;;;;4.65;4.25;;;;;;;17.82;60.13;101392.91;691550;28;69464;-64
2021/07/20 00:18:08;;;;;;;4.90;4.40;;;;;;;17.81;60.38;101392.06;691899;28;70412;-64
2021/07/20 00:18:31;;;;;;;4.63;4.10;;;;;;;17.80;60.34;101393.13;691963;28;69443;-63
2021/07/20 00:18:52;;;;;;;6.63;4.30;;;;;;;17.78;60.44;101388.94;692155;28;67681;-63
2021/07/20 00:19:14;;;;;;;6.13;4.20;;;;;;;17.76;60.42;101394.59;693398;28;23425;-64
2021/07/20 00:19:35;;;;;;;4.57;4.05;;;;;;;17.75;60.56;101387.44;693498;28;33217;-63
2021/07/20 00:19:56;;;;;;;4.55;4.15;;;;;;;17.75;60.37;101394.81;693582;28;19261;-63
2021/07/20 00:20:21;;;;;;;4.57;4.00;;;;;;;17.74;60.38;101390.38;693880;28;21528;-63
2021/07/20 00:20:44;;;;;;;5.00;3.92;;;;;;;17.72;60.51;101385.13;690947;28;106600;-63
2021/07/20 00:21:07;;;;;;;6.22;4.10;;;;;;;17.72;60.39;101395.22;692340;28;62826;-64
2021/07/20 00:21:28;;;;;;;7.28;4.35;;;;;;;17.72;60.85;101392.50;691385;28;69434;-64
2021/07/20 00:21:49;;;;;;;5.22;3.78;;;;;;;17.70;60.35;101389.16;693553;28;22644;-64
2021/07/20 00:22:11;;;;;;;5.80;3.95;;;;;;;17.71;60.44;101385.34;693855;28;23470;-62
2021/07/20 00:22:32;;;;;;;6.07;4.03;;;;;;;17.70;60.64;101386.41;692569;28;45979;-63
2021/07/20 00:22:53;;;;;;;5.35;4.03;;;;;;;17.71;60.45;101391.66;693937;28;21556;-63
2021/07/20 00:23:14;;;;;;;4.78;4.05;;;;;;;17.70;60.58;101392.72;693886;28;22422;-63
2021/07/20 00:23:35;;;;;;;5.85;4.10;;;;;;;17.70;60.55;101383.69;693643;28;23484;-63
2021/07/20 00:23:57;;;;;;;4.85;4.20;;;;;;;17.70;60.61;101384.50;693710;28;22180;-63
2021/07/20 00:24:18;;;;;;;4.53;4.18;;;;;;;17.70;60.45;101389.16;692446;28;46282;-63
2021/07/20 00:24:39;;;;;;;4.32;4.03;;;;;;;17.71;60.21;101388.06;692231;28;22485;-61
2021/07/20 00:25:00;;;;;;;4.45;4.13;;;;;;;17.69;60.28;101387.44;694010;28;20822;-62
2021/07/20 00:25:23;;;;;;;4.88;4.20;;;;;;;17.68;60.39;101383.03;692431;28;22426;-62
2021/07/20 00:25:47;;;;;;;8.00;4.20;;;;;;;17.67;60.13;101381.38;690636;28;69370;-62
2021/07/20 00:26:09;;;;;;;6.10;4.50;;;;;;;17.67;60.27;101390.38;691521;28;92281;-63
2021/07/20 00:26:31;;;;;;;5.32;4.53;;;;;;;17.68;60.12;101385.75;692927;28;46161;-63
2021/07/20 00:26:52;;;;;;;6.47;4.22;;;;;;;17.67;60.04;101387.66;691857;28;42763;-63
2021/07/20 00:27:13;;;;;;;6.55;4.30;;;;;;;17.68;60.13;101383.88;692537;28;22412;-63
2021/07/20 00:27:36;;;;;;;4.38;4.05;;;;;;;17.67;60.19;101384.94;692891;28;20074;-63
2021/07/20 00:27:57;;;;;;;5.07;3.97;;;;;;;17.68;59.96;101385.75;693005;28;43325;-63
2021/07/20 00:28:20;;;;;;;6.07;4.15;;;;;;;17.68;59.85;101380.28;692844;28;46331;-63
2021/07/20 00:28:41;;;;;;;5.80;4.20;;;;;;;17.69;59.91;101384.72;692205;28;68297;-64
2021/07/20 00:29:02;;;;;;;4.10;3.70;;;;;;;17.70;59.60;101387.25;693283;28;20140;-64
2021/07/20 00:29:25;;;;;;;4.32;3.70;;;;;;;17.71;59.74;101393.53;691479;28;68352;-63
2021/07/20 00:29:46;;;;;;;5.47;3.80;;;;;;;17.69;59.79;101382.81;693195;28;10528;-64
2021/07/20 00:30:10;;;;;;;4.22;3.83;;;;;;;17.70;59.92;101389.97;694532;28;962;-63
2021/07/20 00:30:33;;;;;;;4.30;3.90;;;;;;;17.70;59.49;101387.25;691080;28;92225;-63
2021/07/20 00:30:54;;;;;;;5.82;4.15;;;;;;;17.69;59.62;101385.56;692611;28;46346;-63
2021/07/20 00:31:17;;;;;;;7.65;4.18;;;;;;;17.70;59.73;101381.78;690928;28;46283;-64
2021/07/20 00:31:42;;;;;;;4.90;3.95;;;;;;;17.71;59.34;101390.81;691418;28;38083;-64
2021/07/20 00:32:04;;;;;;;3.95;3.63;;;;;;;17.70;59.55;101386.41;692575;28;44323;-64
2021/07/20 00:32:25;;;;;;;4.55;3.78;;;;;;;17.70;59.52;101378.22;693082;28;36417;-63
2021/07/20 00:32:46;;;;;;;4.38;3.90;;;;;;;17.70;59.79;101381.78;693508;28;22387;-64
2021/07/20 00:33:08;;;;;;;4.53;3.90;;;;;;;17.70;59.69;101387.25;694381;28;879;-63
2021/07/20 00:33:29;;;;;;;4.95;4.15;;;;;;;17.72;59.34;101387.03;693437;28;22563;-64
2021/07/20 00:33:50;;;;;;;4.80;4.13;;;;;;;17.72;59.64;101381.56;692313;28;44056;-63
2021/07/20 00:34:13;;;;;;;4.55;4.15;;;;;;;17.72;59.26;101389.75;693201;28;23467;-64
2021/07/20 00:34:34;;;;;;;4.57;4.13;;;;;;;17.73;59.53;101384.09;693184;28;46425;-63
2021/07/20 00:34:56;;;;;;;3.90;3.50;;;;;;;17.73;59.19;101386.00;692582;28;44850;-63
2021/07/20 00:35:17;;;;;;;4.15;3.78;;;;;;;17.73;59.47;101375.91;693569;28;15469;-59
2021/07/20 00:35:39;;;;;;;4.30;3.90;;;;;;;17.75;59.15;101386.63;693618;28;15265;-63
2021/07/20 00:36:01;;;;;;;5.47;3.92;;;;;;;17.76;59.02;101385.59;692401;28;43171;-63
2021/07/20 00:36:22;;;;;;;4.57;4.10;;;;;;;17.75;59.12;101379.25;692699;28;45230;-64
2021/07/20 00:36:43;;;;;;;5.38;4.00;;;;;;;17.77;59.18;101381.78;693690;28;23639;-63
2021/07/20 00:37:05;;;;;;;4.15;3.75;;;;;;;17.76;59.28;101378.22;693952;28;22430;-63
2021/07/20 00:37:26;;;;;;;5.45;4.05;;;;;;;17.80;59.02;101381.34;692004;28;45281;-64
2021/07/20 00:37:48;;;;;;;4.07;3.72;;;;;;;17.81;59.05;101383.06;693529;28;23624;-64
2021/07/20 00:38:11;;;;;;;4.55;3.55;;;;;;;17.81;59.02;101386.63;692645;28;46223;-64
2021/07/20 00:38:36;;;;;;;5.05;3.75;;;;;;;17.84;59.03;101379.91;684251;28;139237;-63
2021/07/20 00:38:58;;;;;;;4.00;3.60;;;;;;;17.87;58.91;101381.34;684830;28;46372;-64
2021/07/20 00:39:21;;;;;;;4.25;3.85;;;;;;;17.86;58.85;101380.53;683335;28;1082;-63
2021/07/20 00:39:43;;;;;;;4.25;3.85;;;;;;;17.88;58.92;101381.16;681174;28;66263;-64
2021/07/20 00:40:09;;;;;;;4.57;4.03;;;;;;;17.89;58.84;101382.03;679591;28;67942;-61
2021/07/20 00:40:31;;;;;;;5.22;3.95;;;;;;;17.91;58.79;101385.38;681571;28;93177;-63
2021/07/20 00:40:57;;;;;;;4.70;4.00;;;;;;;17.91;58.73;101383.50;682940;28;124713;-64
2021/07/20 00:41:27;;;;;;;4.85;3.95;;;;;;;17.92;58.48;101379.72;686825;28;60481;-60
2021/07/20 00:41:48;;;;;;;4.85;3.60;;;;;;;17.93;58.80;101384.13;689038;28;22495;-63
2021/07/20 00:42:09;;;;;;;4.72;3.70;;;;;;;17.94;58.68;101384.97;693763;28;13902;-63
2021/07/20 00:42:30;;;;;;;5.75;3.92;;;;;;;17.94;58.52;101387.69;690267;28;44353;-63
2021/07/20 00:42:54;;;;;;;4.18;3.78;;;;;;;17.94;58.37;101385.81;690064;28;22410;-64
2021/07/20 00:43:16;;;;;;;4.22;3.83;;;;;;;17.94;58.59;101383.06;687755;28;115086;-63
2021/07/20 00:43:40;;;;;;;4.57;3.90;;;;;;;17.94;58.53;101394.00;689433;28;68448;-63
2021/07/20 00:44:02;;;;;;;5.03;3.80;;;;;;;17.94;58.48;101387.69;690741;28;30517;-62
2021/07/20 00:44:24;;;;;;;4.10;3.70;;;;;;;17.93;58.42;101388.75;691978;28;21277;-63
2021/07/20 00:44:45;;;;;;;5.75;3.60;;;;;;;17.91;58.58;101386.22;692474;28;46353;-63
2021/07/20 00:45:09;;;;;;;5.40;3.70;;;;;;;17.89;58.69;101380.13;689993;28;45286;-62
2021/07/20 00:45:30;;;;;;;4.20;3.70;;;;;;;17.89;58.93;101388.34;685074;28;92859;-63
2021/07/20 00:45:51;;;;;;;7.07;3.80;;;;;;;17.88;58.85;101383.91;688244;28;44352;-62
2021/07/20 00:46:13;;;;;;;4.90;4.03;;;;;;;17.89;58.94;101387.50;687955;28;10412;-64
2021/07/20 00:46:34;;;;;;;4.60;4.10;;;;;;;17.88;58.70;101383.91;687919;28;44020;-63
2021/07/20 00:46:56;;;;;;;5.05;4.00;;;;;;;17.88;58.78;101381.16;688985;28;45251;-62
2021/07/20 00:47:18;;;;;;;6.25;4.03;;;;;;;17.87;58.80;101384.94;690008;28;23567;-63
2021/07/20 00:47:41;;;;;;;4.72;3.72;;;;;;;17.88;58.75;101383.91;691683;28;1030;-61
2021/07/20 00:48:02;;;;;;;4.85;3.83;;;;;;;17.87;58.95;101379.47;690149;28;59017;-63
2021/07/20 00:48:26;;;;;;;4.38;3.70;;;;;;;17.88;58.72;101383.03;690927;28;88532;-64
2021/07/20 00:48:47;;;;;;;4.30;3.70;;;;;;;17.89;58.86;101379.31;693282;28;23490;-62
2021/07/20 00:49:21;;;;;;;6.57;4.10;;;;;;;17.90;58.92;101380.97;685888;28;160717;-63
2021/07/20 00:49:42;;;;;;;4.18;3.72;;;;;;;17.90;58.84;101384.56;689238;28;60715;-64
2021/07/20 00:50:05;;;;;;;5.30;3.70;;;;;;;17.90;58.82;101378.22;687738;28;37101;-63
2021/07/20 00:50:29;;;;;;;4.20;3.80;;;;;;;17.90;58.76;101384.56;688679;28;70183;-62
2021/07/20 00:50:51;;;;;;;4.93;4.05;;;;;;;17.88;58.61;101383.91;686452;28;67242;-63
2021/07/20 00:51:13;;;;;;;5.88;3.88;;;;;;;17.87;58.74;101374.03;686549;28;69469;-64
2021/07/20 00:51:34;;;;;;;4.03;3.72;;;;;;;17.87;58.77;101376.75;690466;28;21630;-64
2021/07/20 00:51:55;;;;;;;4.00;3.60;;;;;;;17.89;58.69;101382.03;690318;28;22383;-63
2021/07/20 00:52:16;;;;;;;5.25;3.83;;;;;;;17.87;58.85;101374.03;687570;28;22410;-62
2021/07/20 00:52:39;;;;;;;4.07;3.70;;;;;;;17.90;58.71;101381.81;685514;28;44370;-63
2021/07/20 00:53:02;;;;;;;5.82;3.70;;;;;;;17.89;58.88;101371.09;687691;28;46315;-63
2021/07/20 00:53:24;;;;;;;5.18;3.90;;;;;;;17.91;58.89;101372.56;686140;28;92345;-63
2021/07/20 00:53:52;;;;;;;4.50;3.90;;;;;;;17.91;58.92;101374.47;685304;28;127583;-62
2021/07/20 00:54:20;;;;;;;4.28;3.40;;;;;;;17.92;58.92;101374.25;685325;28;137955;-62
2021/07/20 00:54:41;;;;;;;4.03;3.63;;;;;;;17.92;58.81;101376.97;690192;28;40560;-62
2021/07/20 00:55:04;;;;;;;4.10;3.70;;;;;;;17.93;58.70;101381.41;691180;28;8123;-63
2021/07/20 00:55:25;;;;;;;4.50;4.00;;;;;;;17.93;58.55;101369.63;689662;28;46405;-63
2021/07/20 00:55:46;;;;;;;4.22;3.83;;;;;;;17.94;58.79;101377.59;692212;28;22406;-64
2021/07/20 00:56:09;;;;;;;4.30;3.90;;;;;;;17.92;58.67;101370.69;689914;28;68333;-62
2021/07/20 00:56:34;;;;;;;4.35;3.90;;;;;;;17.93;58.69;101373.22;690300;28;109400;-61
2021/07/20 00:56:55;;;;;;;4.85;3.90;;;;;;;17.94;58.81;101380.34;690760;28;18363;-63
2021/07/20 00:57:18;;;;;;;4.60;3.90;;;;;;;17.94;58.57;101380.34;687747;28;13479;-63
2021/07/20 00:57:43;;;;;;;3.90;3.60;;;;;;;17.94;58.86;101379.50;685889;28;1268;-62
2021/07/20 00:58:08;;;;;;;5.15;3.92;;;;;;;17.93;58.84;101375.94;681321;28;115973;-62
2021/07/20 00:58:30;;;;;;;4.95;3.88;;;;;;;17.94;58.89;101376.78;683012;28;92277;-62
2021/07/20 00:58:52;;;;;;;4.40;4.00;;;;;;;17.94;58.87;101379.50;687539;28;19715;-63
2021/07/20 00:59:14;;;;;;;5.22;4.10;;;;;;;17.93;59.04;101373.22;687117;28;46435;-63
2021/07/20 00:59:41;;;;;;;4.28;3.88;;;;;;;17.92;58.93;101366.06;687124;28;110315;-63
2021/07/20 01:00:05;;;;;;;4.80;4.00;;;;;;;17.94;58.99;101374.03;688677;28;68663;-63
2021/07/20 01:00:26;;;;;;;6.32;3.65;;;;;;;17.95;59.06;101370.28;686522;28;67479;-63
2021/07/20 01:00:51;;;;;;;8.02;4.05;;;;;;;17.93;58.87;101369.63;689233;28;41433;-62
2021/07/20 01:01:14;;;;;;;5.35;4.13;;;;;;;17.91;59.03;101369.81;686939;28;115078;-63
2021/07/20 01:01:39;;;;;;;4.50;4.00;;;;;;;17.92;58.89;101373.41;687502;28;137902;-62
2021/07/20 01:02:01;;;;;;;4.25;3.70;;;;;;;17.94;58.83;101368.56;689441;28;22410;-63
2021/07/20 01:02:22;;;;;;;4.10;3.70;;;;;;;17.94;59.02;101374.03;690221;28;21296;-62
2021/07/20 01:02:43;;;;;;;4.95;4.05;;;;;;;17.94;58.86;101366.66;691322;28;23516;-63
2021/07/20 01:03:06;;;;;;;5.10;3.95;;;;;;;17.94;58.82;101372.13;690575;28;46452;-64
2021/07/20 01:03:31;;;;;;;4.30;3.90;;;;;;;17.96;58.80;101380.13;689478;28;92327;-63
2021/07/20 01:03:55;;;;;;;4.05;3.70;;;;;;;17.98;58.90;101373.41;689286;28;137993;-62
2021/07/20 01:04:21;;;;;;;4.28;3.88;;;;;;;18.00;58.63;101374.03;689480;28;137983;-63
2021/07/20 01:04:44;;;;;;;5.95;3.85;;;;;;;18.01;58.55;101373.00;689523;28;69448;-63
2021/07/20 01:05:06;;;;;;;6.13;3.92;;;;;;;18.02;58.61;101371.09;687621;28;46410;-62
2021/07/20 01:05:28;;;;;;;5.30;3.80;;;;;;;18.04;58.59;101376.34;685511;28;44245;-62
2021/07/20 01:05:52;;;;;;;4.43;3.67;;;;;;;18.04;58.54;101374.47;684022;28;92444;-61
2021/07/20 01:06:17;;;;;;;4.35;3.70;;;;;;;18.04;58.51;101379.06;686439;28;67496;-64
2021/07/20 01:06:39;;;;;;;7.47;3.97;;;;;;;18.04;58.43;101373.59;688536;28;91061;-63
2021/07/20 01:07:03;;;;;;;5.70;4.18;;;;;;;18.04;58.42;101370.88;690125;28;69429;-62
2021/07/20 01:07:25;;;;;;;4.47;4.00;;;;;;;18.05;58.54;101376.13;690440;28;43495;-62
2021/07/20 01:07:47;;;;;;;4.95;3.75;;;;;;;18.06;58.47;101371.53;688844;28;37910;-63
2021/07/20 01:08:09;;;;;;;4.90;3.70;;;;;;;18.06;58.35;101372.34;687996;28;69547;-63
2021/07/20 01:08:35;;;;;;;4.28;3.67;;;;;;;18.06;58.69;101368.78;688245;28;38196;-63
2021/07/20 01:09:01;;;;;;;4.00;3.70;;;;;;;18.06;58.77;101366.06;687844;28;61764;-63
2021/07/20 01:09:25;;;;;;;4.10;3.70;;;;;;;18.05;58.75;101365.19;692403;28;1416;-63
2021/07/20 01:09:47;;;;;;;4.50;3.80;;;;;;;18.06;58.69;101366.06;691526;28;1099;-62
2021/07/20 01:10:12;;;;;;;4.80;3.70;;;;;;;18.06;58.77;101361.41;692175;28;49650;-63
2021/07/20 01:10:34;;;;;;;5.70;4.05;;;;;;;18.07;58.54;101367.72;687966;28;93006;-62
2021/07/20 01:10:55;;;;;;;5.80;3.88;;;;;;;18.06;58.63;101361.41;689613;28;990;-64
2021/07/20 01:11:21;;;;;;;4.90;3.67;;;;;;;18.07;58.36;101371.31;684628;28;115307;-63
2021/07/20 01:11:43;;;;;;;5.38;3.80;;;;;;;18.07;58.29;101367.72;689730;28;67261;-63
2021/07/20 01:12:06;;;;;;;4.03;3.50;;;;;;;18.05;58.43;101365.19;690191;28;46647;-62
2021/07/20 01:12:41;;;;;;;5.75;4.00;;;;;;;18.05;58.49;101364.38;683616;28;160640;-63
2021/07/20 01:13:04;;;;;;;4.85;3.85;;;;;;;18.05;58.25;101365.19;687870;28;114773;-63
2021/07/20 01:13:28;;;;;;;9.10;4.18;;;;;;;18.05;58.23;101365.19;690866;28;92644;-63
2021/07/20 01:13:49;;;;;;;5.15;3.90;;;;;;;18.06;58.36;101368.78;691093;28;70584;-63
2021/07/20 01:14:11;;;;;;;4.50;4.10;;;;;;;18.06;58.34;101366.88;693181;28;22396;-63
2021/07/20 01:14:36;;;;;;;4.60;3.97;;;;;;;18.06;58.17;101364.16;693512;28;81139;-63
2021/07/20 01:15:02;;;;;;;5.28;3.90;;;;;;;18.08;58.12;101366.69;693393;28;60466;-63
2021/07/20 01:15:25;;;;;;;6.60;3.80;;;;;;;18.07;58.12;101365.00;689811;28;115221;-64
2021/07/20 01:15:47;;;;;;;5.93;3.60;;;;;;;18.08;57.99;101361.22;692911;28;37461;-64
2021/07/20 01:16:09;;;;;;;4.07;3.58;;;;;;;18.08;57.91;101361.22;691534;28;46283;-63
2021/07/20 01:16:33;;;;;;;5.38;3.80;;;;;;;18.09;57.90;101369.19;688844;28;46412;-62
2021/07/20 01:16:55;;;;;;;4.30;3.90;;;;;;;18.09;58.04;101363.72;685673;28;57901;-62
2021/07/20 01:17:17;;;;;;;5.35;3.72;;;;;;;18.11;58.03;101361.63;685372;28;69430;-62
2021/07/20 01:17:42;;;;;;;5.93;3.85;;;;;;;18.14;57.93;101363.94;686261;28;69306;-63
2021/07/20 01:18:05;;;;;;;5.35;4.00;;;;;;;18.14;58.00;101365.84;690365;28;15267;-61
2021/07/20 01:18:28;;;;;;;5.20;3.95;;;;;;;18.15;57.85;101362.88;692313;28;45254;-63
2021/07/20 01:18:51;;;;;;;4.60;4.05;;;;;;;18.16;57.74;101369.19;689729;28;92324;-64
2021/07/20 01:19:14;;;;;;;4.20;3.80;;;;;;;18.16;57.73;101370.00;689749;28;63191;-61
2021/07/20 01:19:37;;;;;;;4.10;3.70;;;;;;;18.17;57.58;101370.88;689274;28;67474;-61
2021/07/20 01:20:07;;;;;;;4.22;3.83;;;;;;;18.17;57.78;101360.78;686481;28;138855;-63
2021/07/20 01:20:30;;;;;;;6.47;3.92;;;;;;;18.17;57.77;101363.50;682806;28;159340;-62
2021/07/20 01:20:54;;;;;;;5.25;3.67;;;;;;;18.17;57.78;101362.69;690258;28;37851;-61
2021/07/20 01:21:17;;;;;;;4.45;3.80;;;;;;;18.18;57.86;101370.66;691580;28;46409;-63
2021/07/20 01:21:39;;;;;;;4.38;3.97;;;;;;;18.18;57.92;101361.59;691216;28;69395;-63
2021/07/20 01:22:04;;;;;;;4.25;3.80;;;;;;;18.19;57.89;101358.66;688808;28;69524;-63
2021/07/20 01:22:30;;;;;;;5.40;4.20;;;;;;;18.22;58.02;101362.88;687967;28;112609;-62
2021/07/20 01:22:59;;;;;;;4.78;4.15;;;;;;;18.22;57.90;101370.25;689364;28;101243;-61
2021/07/20 01:23:31;;;;;;;5.57;3.85;;;;;;;18.22;58.03;101365.59;687904;28;138956;-63
2021/07/20 01:23:54;;;;;;;4.75;3.90;;;;;;;18.21;57.88;101366.66;686527;28;134358;-61
2021/07/20 01:24:20;;;;;;;4.30;3.90;;;;;;;18.21;57.85;101363.91;690007;28;82452;-62
2021/07/20 01:24:44;;;;;;;4.22;3.60;;;;;;;18.22;57.87;101364.78;691199;28;92189;-62
2021/07/20 01:25:09;;;;;;;3.92;3.60;;;;;;;18.22;57.91;101370.25;690977;28;46333;-63
2021/07/20 01:25:31;;;;;;;3.95;3.55;;;;;;;18.22;57.83;101367.50;688260;28;115171;-60
2021/07/20 01:25:52;;;;;;;4.15;3.58;;;;;;;18.22;58.04;101359.31;692455;28;43943;-62
2021/07/20 01:26:14;;;;;;;4.90;3.90;;;;;;;18.21;58.27;101369.38;692389;28;11603;-62
2021/07/20 01:26:36;;;;;;;3.80;3.50;;;;;;;18.22;58.29;101370.25;690989;28;45274;-63
2021/07/20 01:26:59;;;;;;;5.43;3.60;;;;;;;18.17;58.29;101358.03;693584;28;864;-63
2021/07/20 01:27:21;;;;;;;4.45;3.38;;;;;;;18.20;58.30;101356.78;691203;28;1812;-61
2021/07/20 01:27:50;;;;;;;5.60;3.75;;;;;;;18.18;58.64;101364.34;690200;28;37190;-62
2021/07/20 01:28:17;;;;;;;4.80;4.18;;;;;;;18.17;58.79;101357.22;687199;28;59998;-63
2021/07/20 01:28:40;;;;;;;4.10;3.63;;;;;;;18.17;58.60;101366.25;686673;28;60846;-63
2021/07/20 01:29:08;;;;;;;5.00;3.60;;;;;;;18.15;58.59;101360.16;687269;28;61841;-62
2021/07/20 01:29:31;;;;;;;4.65;3.70;;;;;;;18.14;58.66;101363.09;688045;28;134973;-63
2021/07/20 01:29:56;;;;;;;7.25;4.20;;;;;;;18.13;58.75;101364.13;686875;28;83819;-63
2021/07/20 01:30:19;;;;;;;4.70;3.80;;;;;;;18.12;58.74;101360.56;684694;28;69453;-61
2021/07/20 01:30:41;;;;;;;5.00;3.55;;;;;;;18.12;58.78;101359.72;687459;28;44393;-63
2021/07/20 01:31:08;;;;;;;5.50;3.90;;;;;;;18.12;58.86;101359.72;685366;28;92354;-63
2021/07/20 01:31:31;;;;;;;4.60;4.10;;;;;;;18.12;59.27;101357.84;683429;28;92302;-63
2021/07/20 01:32:04;;;;;;;4.70;3.80;;;;;;;18.09;59.04;101354.69;686261;28;110247;-63
2021/07/20 01:32:26;;;;;;;4.78;4.00;;;;;;;18.08;59.11;101359.31;692092;28;70566;-63
2021/07/20 01:32:49;;;;;;;4.72;3.70;;;;;;;18.09;59.19;101358.25;692828;28;46116;-63
2021/07/20 01:33:14;;;;;;;5.47;4.00;;;;;;;18.08;59.36;101359.31;691491;28;78303;-63
2021/07/20 01:33:36;;;;;;;6.05;3.60;;;;;;;18.08;59.58;101363.94;694556;28;69380;-61
2021/07/20 01:33:59;;;;;;;5.70;3.92;;;;;;;18.06;59.64;101355.97;691325;28;69452;-63
2021/07/20 01:34:23;;;;;;;4.90;4.03;;;;;;;18.06;59.47;101366.88;690286;28;115067;-62
2021/07/20 01:34:45;;;;;;;5.57;4.00;;;;;;;18.06;59.72;101355.13;692602;28;44346;-61
2021/07/20 01:35:08;;;;;;;5.75;3.55;;;;;;;18.04;59.69;101360.81;694432;28;46356;-62
2021/07/20 01:35:32;;;;;;;5.63;3.78;;;;;;;18.05;59.79;101358.91;690184;28;104809;-63
2021/07/20 01:35:54;;;;;;;5.93;3.88;;;;;;;18.04;59.77;101358.06;694143;28;46361;-62
2021/07/20 01:36:18;;;;;;;3.72;3.40;;;;;;;18.03;59.51;101363.75;691719;28;45351;-63
2021/07/20 01:36:46;;;;;;;7.03;3.60;;;;;;;18.01;59.90;101367.53;690907;28;60311;-63
2021/07/20 01:37:11;;;;;;;4.15;3.58;;;;;;;18.00;59.71;101363.09;688436;28;137814;-64
2021/07/20 01:37:34;;;;;;;7.85;3.97;;;;;;;18.00;60.07;101362.25;689984;28;83420;-63
2021/07/20 01:37:57;;;;;;;5.40;3.92;;;;;;;17.98;60.14;101365.22;691416;28;12439;-62
2021/07/20 01:38:21;;;;;;;6.07;3.72;;;;;;;17.98;59.95;101364.38;684788;28;138063;-62
2021/07/20 01:38:46;;;;;;;5.25;3.72;;;;;;;17.99;59.87;101364.16;688849;28;46339;-62
2021/07/20 01:39:08;;;;;;;5.05;3.90;;;;;;;18.00;60.00;101365.00;688297;28;74112;-60
2021/07/20 01:39:30;;;;;;;4.93;3.60;;;;;;;18.00;59.82;101365.81;689704;28;68358;-63
2021/07/20 01:39:54;;;;;;;4.78;3.80;;;;;;;18.01;59.87;101362.06;690082;28;65154;-61
2021/07/20 01:40:16;;;;;;;4.70;3.63;;;;;;;18.01;59.82;101359.31;695420;28;23733;-61
2021/07/20 01:40:38;;;;;;;3.95;3.58;;;;;;;18.03;59.49;101359.13;694926;28;46306;-62
2021/07/20 01:41:06;;;;;;;3.95;3.42;;;;;;;18.05;59.77;101364.38;694675;28;70356;-62
2021/07/20 01:41:29;;;;;;;4.85;3.55;;;;;;;18.04;59.43;101358.06;692446;28;136308;-60
2021/07/20 01:41:52;;;;;;;4.10;3.35;;;;;;;18.04;59.12;101362.69;689351;28;92353;-63
2021/07/20 01:42:15;;;;;;;4.15;3.75;;;;;;;18.03;59.07;101367.31;685523;28;46207;-63
2021/07/20 01:42:37;;;;;;;3.90;3.60;;;;;;;18.03;59.27;101356.38;687860;28;36137;-63
2021/07/20 01:43:01;;;;;;;4.25;3.58;;;;;;;18.03;59.06;101361.84;684267;28;69495;-62
2021/07/20 01:43:24;;;;;;;5.70;4.00;;;;;;;18.03;59.16;101361.00;680626;28;91865;-63
2021/07/20 01:43:49;;;;;;;5.28;4.00;;;;;;;18.01;59.11;101361.22;680623;28;69489;-63
2021/07/20 01:44:12;;;;;;;4.50;4.05;;;;;;;18.00;59.20;101357.63;683394;28;115319;-62
2021/07/20 01:44:36;;;;;;;4.78;4.07;;;;;;;18.00;59.18;101356.81;688487;28;113457;-62
2021/07/20 01:44:58;;;;;;;6.07;3.88;;;;;;;18.01;58.97;101358.50;694207;28;31445;-64
2021/07/20 01:45:19;;;;;;;4.75;3.80;;;;;;;17.98;58.92;101359.75;695324;28;1157;-63
2021/07/20 01:45:41;;;;;;;3.85;3.50;;;;;;;17.99;58.90;101358.69;693157;28;42821;-65
2021/07/20 01:46:04;;;;;;;4.20;3.80;;;;;;;18.00;58.94;101351.34;693394;28;44337;-63
2021/07/20 01:46:26;;;;;;;4.45;3.83;;;;;;;17.98;59.00;101357.00;692386;28;69394;-65
2021/07/20 01:46:51;;;;;;;4.07;3.60;;;;;;;17.97;59.13;101351.75;691753;28;70188;-62
2021/07/20 01:47:13;;;;;;;4.07;3.40;;;;;;;17.98;59.04;101353.44;692317;28;70111;-63
2021/07/20 01:47:37;;;;;;;4.28;3.88;;;;;;;17.98;59.23;101358.91;691515;28;90414;-62
2021/07/20 01:48:01;;;;;;;4.10;3.70;;;;;;;17.98;58.93;101358.91;692876;28;70207;-61